Time;durP1;ratioP1;P1;durP2;ratioP2;P2;SDS_P1;SDS_P2;PMS_P1;PMS_P2;Temp;Humidity;BMP_temperature;BMP_pressure;BME280_temperature;BME280_humidity;BME280_pressure;Samples;Min_cycle;Max_cycle;Signal;HPM_P1;HPM_P2
2024/01/03 00:01:04;;;;;;;14.93;12.60;;;8.50;99.90;;;;;;5150115;27;20042;-82
2024/01/03 00:03:31;;;;;;;236.82;174.50;;;8.50;99.90;;;;;;5113194;27;20488;-83
2024/01/03 00:06:00;;;;;;;16.73;15.02;;;8.50;99.90;;;;;;5112150;27;20057;-81
2024/01/03 00:08:27;;;;;;;22.00;16.55;;;8.50;99.90;;;;;;5111742;27;20042;-80
2024/01/03 00:10:55;;;;;;;71.47;63.83;;;8.50;99.90;;;;;;5126095;27;20035;-82
2024/01/03 00:13:33;;;;;;;689.78;305.70;;;8.50;99.90;;;;;;5129846;27;20034;-83
2024/01/03 00:16:03;;;;;;;24.58;22.08;;;8.60;99.90;;;;;;5112558;27;20442;-82
2024/01/03 00:18:45;;;;;;;19.60;17.60;;;8.50;99.90;;;;;;5108076;27;20550;-83
2024/01/03 00:21:14;;;;;;;607.70;336.83;;;8.40;99.90;;;;;;5116836;27;20039;-82
2024/01/03 00:23:58;;;;;;;63.60;56.92;;;8.50;99.90;;;;;;5130312;27;20077;-82
2024/01/03 00:26:25;;;;;;;19.45;15.68;;;8.50;99.90;;;;;;5136448;27;20125;-81
2024/01/03 00:28:51;;;;;;;22.65;20.75;;;8.40;99.90;;;;;;5125604;27;20556;-80
2024/01/03 00:31:38;;;;;;;56.72;38.33;;;8.40;99.90;;;;;;5123666;27;20493;-80
2024/01/03 00:34:22;;;;;;;130.90;84.10;;;8.40;99.90;;;;;;5124456;27;20045;-81
2024/01/03 00:36:52;;;;;;;15.60;13.77;;;8.40;99.90;;;;;;5118775;28;20075;-82
2024/01/03 00:39:26;;;;;;;398.05;135.95;;;8.40;99.90;;;;;;5116007;27;20046;-81
2024/01/03 00:41:52;;;;;;;75.72;67.38;;;8.40;99.90;;;;;;5129760;27;20451;-82
2024/01/03 00:44:17;;;;;;;18.70;17.25;;;8.40;99.90;;;;;;5101842;28;20052;-82
2024/01/03 00:46:43;;;;;;;239.43;194.63;;;8.40;99.90;;;;;;5124187;27;20043;-81
2024/01/03 00:49:10;;;;;;;18.48;16.90;;;8.50;99.90;;;;;;5104177;27;20122;-82
2024/01/03 00:51:36;;;;;;;46.22;35.25;;;8.40;99.90;;;;;;5140748;27;20043;-82
2024/01/03 00:54:02;;;;;;;56.25;50.45;;;8.40;99.90;;;;;;5118969;28;20036;-81
2024/01/03 00:56:27;;;;;;;37.72;32.38;;;8.40;99.90;;;;;;5112095;27;20043;-81
2024/01/03 00:58:53;;;;;;;304.45;126.05;;;8.40;99.90;;;;;;5124131;27;21830;-81
2024/01/03 01:01:19;;;;;;;19.40;17.40;;;8.50;99.90;;;;;;5137960;27;20043;-82
2024/01/03 01:03:45;;;;;;;21.08;19.38;;;8.40;99.90;;;;;;5106471;27;20043;-81
2024/01/03 01:06:11;;;;;;;16.05;14.45;;;8.40;99.90;;;;;;5108232;27;20049;-81
2024/01/03 01:08:37;;;;;;;17.08;15.32;;;8.40;99.90;;;;;;5118493;27;20043;-81
2024/01/03 01:11:03;;;;;;;21.25;17.58;;;8.40;99.90;;;;;;5129011;27;20042;-82
2024/01/03 01:13:28;;;;;;;77.35;54.15;;;8.40;99.90;;;;;;5146906;27;20035;-82
2024/01/03 01:15:54;;;;;;;53.78;43.55;;;8.40;99.90;;;;;;5130142;27;20390;-81
2024/01/03 01:18:19;;;;;;;127.03;70.03;;;8.50;99.90;;;;;;5131012;27;20035;-81
2024/01/03 01:20:45;;;;;;;17.63;16.02;;;8.50;99.90;;;;;;5123474;27;20074;-81
2024/01/03 01:23:11;;;;;;;207.20;125.65;;;8.50;99.90;;;;;;5121691;27;20078;-82
2024/01/03 01:25:36;;;;;;;33.10;29.33;;;8.40;99.90;;;;;;5124598;27;20046;-81
2024/01/03 01:28:02;;;;;;;35.58;32.10;;;8.40;99.90;;;;;;5129616;27;20569;-81
2024/01/03 01:30:28;;;;;;;66.25;59.05;;;8.40;99.90;;;;;;5111986;27;20043;-82
2024/01/03 01:32:53;;;;;;;241.32;130.55;;;8.40;99.90;;;;;;5106847;27;20039;-80
2024/01/03 01:35:19;;;;;;;34.78;31.08;;;8.40;99.90;;;;;;5116152;27;20158;-82
2024/01/03 01:37:44;;;;;;;27.92;26.15;;;8.40;99.90;;;;;;5125628;27;20410;-81
2024/01/03 01:40:11;;;;;;;236.80;122.45;;;8.40;99.90;;;;;;5120479;27;20042;-82
2024/01/03 01:42:40;;;;;;;133.20;105.80;;;8.40;99.90;;;;;;5104741;27;20047;-83
2024/01/03 01:45:06;;;;;;;319.88;145.70;;;8.50;99.90;;;;;;5114681;27;20038;-82
2024/01/03 01:47:32;;;;;;;16.90;15.35;;;8.40;99.90;;;;;;5133779;27;20501;-81
2024/01/03 01:49:57;;;;;;;125.90;103.18;;;8.40;99.90;;;;;;5143782;27;20074;-82
2024/01/03 01:52:23;;;;;;;80.57;72.22;;;8.50;99.90;;;;;;5107677;27;20058;-81
2024/01/03 01:54:49;;;;;;;42.33;32.88;;;8.50;99.90;;;;;;5121725;27;20414;-82
2024/01/03 01:57:15;;;;;;;39.80;36.40;;;8.50;99.90;;;;;;5127068;27;20038;-82
2024/01/03 01:59:42;;;;;;;124.80;72.07;;;8.60;99.90;;;;;;5124531;27;20577;-81
2024/01/03 02:02:08;;;;;;;202.40;134.65;;;8.50;99.90;;;;;;5124060;27;20180;-81
2024/01/03 02:04:36;;;;;;;29.88;27.25;;;8.60;99.90;;;;;;5119086;27;20114;-82
2024/01/03 02:07:03;;;;;;;27.02;24.98;;;8.60;99.90;;;;;;5128728;27;20050;-81
2024/01/03 02:09:28;;;;;;;172.25;48.88;;;8.60;99.90;;;;;;5146114;27;20086;-83
2024/01/03 02:11:54;;;;;;;16.52;15.13;;;8.50;99.90;;;;;;5099003;27;20071;-81
2024/01/03 02:14:20;;;;;;;15.10;13.48;;;8.50;99.90;;;;;;5122107;27;20039;-80
2024/01/03 02:16:45;;;;;;;19.20;14.88;;;8.50;99.90;;;;;;5124600;27;20539;-82
2024/01/03 02:19:11;;;;;;;77.45;70.82;;;8.60;99.90;;;;;;5131133;27;20038;-81
2024/01/03 02:21:36;;;;;;;133.27;98.57;;;8.60;99.90;;;;;;5132603;27;20043;-83
2024/01/03 02:24:02;;;;;;;94.20;59.88;;;8.70;99.90;;;;;;5106905;27;20050;-81
2024/01/03 02:26:28;;;;;;;141.02;120.57;;;8.80;99.90;;;;;;5130117;27;20049;-81
2024/01/03 02:28:53;;;;;;;13.65;12.48;;;8.80;99.90;;;;;;5116282;27;20099;-81
2024/01/03 02:31:19;;;;;;;18.33;16.52;;;8.80;99.90;;;;;;5115642;27;20038;-82
2024/01/03 02:33:44;;;;;;;16.73;15.02;;;8.80;99.90;;;;;;5130769;27;20501;-81
2024/01/03 02:36:10;;;;;;;14.25;11.25;;;8.80;99.90;;;;;;5094472;27;20070;-82
2024/01/03 02:38:36;;;;;;;15.52;13.63;;;8.80;99.90;;;;;;5113421;27;20516;-81
2024/01/03 02:41:01;;;;;;;46.83;44.00;;;8.80;99.90;;;;;;5104300;27;20042;-82
2024/01/03 02:43:29;;;;;;;16.52;14.18;;;8.80;99.90;;;;;;5116860;27;20121;-81
2024/01/03 02:45:55;;;;;;;14.18;9.30;;;8.90;99.90;;;;;;5103447;27;20050;-82
2024/01/03 02:48:20;;;;;;;11.55;10.35;;;8.90;99.90;;;;;;5125759;27;20039;-82
2024/01/03 02:50:48;;;;;;;11.40;10.00;;;8.90;99.90;;;;;;5139446;27;20118;-82
2024/01/03 02:53:15;;;;;;;16.52;9.93;;;9.00;99.90;;;;;;5124780;27;20534;-81
2024/01/03 02:55:41;;;;;;;72.35;57.63;;;9.00;99.90;;;;;;5132006;27;20035;-81
2024/01/03 02:58:06;;;;;;;12.63;9.60;;;9.00;99.90;;;;;;5132048;27;20038;-82
2024/01/03 03:00:32;;;;;;;14.98;10.25;;;9.00;99.90;;;;;;5115562;27;20037;-83
2024/01/03 03:02:58;;;;;;;42.88;32.20;;;9.00;99.90;;;;;;5124062;27;20651;-81
2024/01/03 03:05:23;;;;;;;11.60;9.48;;;9.00;99.90;;;;;;5123105;27;20039;-81
2024/01/03 03:07:49;;;;;;;46.70;42.22;;;9.10;99.90;;;;;;5100582;27;20034;-83
2024/01/03 03:10:15;;;;;;;142.85;69.82;;;9.10;99.90;;;;;;5125190;27;20050;-81
2024/01/03 03:12:40;;;;;;;49.83;37.35;;;9.10;99.90;;;;;;5119432;27;20034;-83
2024/01/03 03:15:06;;;;;;;13.88;9.38;;;9.10;99.90;;;;;;5113532;27;20050;-80
2024/01/03 03:17:32;;;;;;;14.65;10.30;;;9.10;99.90;;;;;;5131225;27;20034;-81
2024/01/03 03:19:58;;;;;;;12.35;10.80;;;9.00;99.90;;;;;;5115418;27;20045;-82
2024/01/03 03:22:24;;;;;;;142.07;84.30;;;9.10;99.90;;;;;;5135986;27;20101;-81
2024/01/03 03:24:49;;;;;;;25.33;23.05;;;9.10;99.90;;;;;;5110278;27;20043;-82
2024/01/03 03:27:15;;;;;;;87.07;78.32;;;9.10;99.90;;;;;;5124729;27;20053;-82
2024/01/03 03:29:41;;;;;;;15.70;11.13;;;9.10;99.90;;;;;;5131278;27;20034;-84
2024/01/03 03:32:07;;;;;;;14.93;11.23;;;9.10;99.90;;;;;;5150848;27;20145;-81
2024/01/03 03:34:33;;;;;;;15.95;10.95;;;9.10;99.90;;;;;;5132622;27;20034;-82
2024/01/03 03:37:00;;;;;;;14.48;13.05;;;9.10;99.90;;;;;;5121689;27;20031;-83
2024/01/03 03:39:25;;;;;;;15.13;11.30;;;9.10;99.90;;;;;;5118302;27;20046;-81
2024/01/03 03:41:51;;;;;;;16.88;11.80;;;9.10;99.90;;;;;;5113472;27;20590;-82
2024/01/03 03:44:17;;;;;;;13.07;10.60;;;9.10;99.90;;;;;;5114912;27;20069;-81
2024/01/03 03:46:42;;;;;;;119.95;90.38;;;9.10;99.90;;;;;;5110185;27;20050;-82
2024/01/03 03:49:08;;;;;;;11.60;10.35;;;9.10;99.90;;;;;;5125642;27;20099;-82
2024/01/03 03:51:34;;;;;;;35.90;31.92;;;9.20;99.90;;;;;;5109859;27;20496;-82
2024/01/03 03:53:59;;;;;;;51.10;33.45;;;9.10;99.90;;;;;;5131900;27;20034;-82
2024/01/03 03:56:28;;;;;;;11.70;10.32;;;9.20;99.90;;;;;;5099861;27;20115;-83
2024/01/03 03:58:55;;;;;;;13.65;9.43;;;9.20;99.90;;;;;;5101597;27;20051;-82
2024/01/03 04:01:21;;;;;;;11.93;10.80;;;9.10;99.90;;;;;;5117943;27;20485;-82
2024/01/03 04:03:46;;;;;;;14.70;10.70;;;9.20;99.90;;;;;;5110054;27;20042;-82
2024/01/03 04:06:13;;;;;;;20.45;18.38;;;9.10;99.90;;;;;;5100494;27;20061;-81
2024/01/03 04:08:48;;;;;;;97.43;71.07;;;9.10;99.90;;;;;;5112685;27;20078;-82
2024/01/03 04:11:13;;;;;;;50.17;46.60;;;9.20;99.90;;;;;;5094728;27;20441;-83
2024/01/03 04:13:39;;;;;;;138.90;102.70;;;9.20;99.90;;;;;;5112204;27;20039;-82
2024/01/03 04:16:06;;;;;;;11.10;9.73;;;9.20;99.90;;;;;;5118686;27;20042;-81
2024/01/03 04:18:33;;;;;;;27.67;24.23;;;9.30;99.90;;;;;;5116707;27;20043;-82
2024/01/03 04:20:59;;;;;;;10.52;9.52;;;9.20;99.90;;;;;;5119796;27;20407;-82
2024/01/03 04:23:24;;;;;;;11.05;9.98;;;9.20;99.90;;;;;;5094006;27;20055;-82
2024/01/03 04:25:50;;;;;;;42.40;22.20;;;9.20;99.90;;;;;;5124617;27;20501;-83
2024/01/03 04:28:16;;;;;;;12.88;10.52;;;9.20;99.90;;;;;;5137093;27;20072;-82
2024/01/03 04:30:41;;;;;;;23.05;18.70;;;9.20;99.90;;;;;;5115524;27;20046;-82
2024/01/03 04:33:07;;;;;;;14.50;12.60;;;9.20;99.90;;;;;;5139373;27;20039;-82
2024/01/03 04:35:33;;;;;;;12.85;10.10;;;9.20;99.90;;;;;;5120080;27;20085;-81
2024/01/03 04:38:02;;;;;;;33.70;29.98;;;9.20;99.90;;;;;;5120064;27;20030;-83
2024/01/03 04:40:29;;;;;;;13.23;10.10;;;9.20;99.90;;;;;;5119432;28;20637;-82
2024/01/03 04:42:55;;;;;;;13.52;10.52;;;9.20;99.90;;;;;;5093791;27;20050;-82
2024/01/03 04:45:21;;;;;;;12.07;10.90;;;9.20;99.90;;;;;;5101861;28;20586;-83
2024/01/03 04:47:46;;;;;;;11.98;10.88;;;9.20;99.90;;;;;;5115430;27;20050;-81
2024/01/03 04:50:12;;;;;;;15.50;11.68;;;9.30;99.90;;;;;;5114073;28;20027;-82
2024/01/03 04:52:37;;;;;;;16.38;14.75;;;9.20;99.90;;;;;;5111122;28;20114;-82
2024/01/03 04:55:03;;;;;;;20.58;18.77;;;9.20;99.90;;;;;;5117442;27;20080;-84
2024/01/03 04:57:29;;;;;;;13.82;11.60;;;9.20;99.90;;;;;;5126284;27;20046;-81
2024/01/03 04:59:54;;;;;;;19.63;18.02;;;9.20;99.90;;;;;;5123160;27;20038;-82
2024/01/03 05:02:20;;;;;;;18.10;16.35;;;9.20;99.90;;;;;;5142757;27;20043;-81
2024/01/03 05:04:46;;;;;;;24.85;22.67;;;9.10;99.90;;;;;;5116879;27;20026;-83
2024/01/03 05:07:12;;;;;;;18.20;16.58;;;9.10;99.90;;;;;;5122065;27;20039;-81
2024/01/03 05:09:37;;;;;;;19.30;17.33;;;9.10;99.90;;;;;;5144139;27;20832;-82
2024/01/03 05:12:03;;;;;;;21.30;19.23;;;9.00;99.90;;;;;;5113866;27;20034;-84
2024/01/03 05:14:31;;;;;;;15.98;12.25;;;9.00;99.90;;;;;;5136013;27;20494;-82
2024/01/03 05:16:56;;;;;;;18.45;17.05;;;9.00;99.90;;;;;;5106025;27;20027;-82
2024/01/03 05:19:22;;;;;;;14.52;13.32;;;9.00;99.90;;;;;;5130558;27;20039;-82
2024/01/03 05:21:48;;;;;;;24.17;22.40;;;8.90;99.90;;;;;;5127355;27;20486;-83
2024/01/03 05:24:14;;;;;;;26.80;24.80;;;8.80;99.90;;;;;;5116589;27;20058;-82
2024/01/03 05:26:40;;;;;;;14.80;13.50;;;8.80;99.90;;;;;;5123761;27;20382;-83
2024/01/03 05:29:05;;;;;;;13.88;12.52;;;8.80;99.90;;;;;;5119337;27;20060;-82
2024/01/03 05:31:31;;;;;;;18.48;16.80;;;8.80;99.90;;;;;;5115728;27;20490;-83
2024/01/03 05:33:57;;;;;;;13.65;12.35;;;8.80;99.90;;;;;;5122356;27;20038;-83
2024/01/03 05:36:22;;;;;;;15.00;13.65;;;8.80;99.90;;;;;;5107064;27;20026;-83
2024/01/03 05:38:48;;;;;;;19.45;12.60;;;8.70;99.90;;;;;;5112243;27;20114;-82
2024/01/03 05:41:13;;;;;;;21.73;13.05;;;8.70;99.90;;;;;;5141955;27;20051;-82
2024/01/03 05:43:39;;;;;;;15.85;9.70;;;8.70;99.90;;;;;;5117556;27;20119;-82
2024/01/03 05:46:05;;;;;;;18.67;10.45;;;8.70;99.90;;;;;;5120190;27;20058;-82
2024/01/03 05:48:31;;;;;;;26.30;21.60;;;8.70;99.90;;;;;;5120069;27;20059;-83
2024/01/03 05:50:56;;;;;;;21.65;14.32;;;8.70;99.90;;;;;;5122929;27;20129;-82
2024/01/03 05:53:22;;;;;;;33.85;27.25;;;8.80;99.90;;;;;;5122582;27;20077;-84
2024/01/03 05:55:47;;;;;;;25.75;11.25;;;8.80;99.90;;;;;;5105654;27;20572;-81
2024/01/03 05:58:13;;;;;;;22.63;11.93;;;8.90;99.90;;;;;;5131987;27;20039;-83
2024/01/03 06:00:39;;;;;;;28.38;17.95;;;8.90;99.90;;;;;;5113822;27;20115;-82
2024/01/03 06:03:05;;;;;;;19.77;17.77;;;9.00;99.90;;;;;;5100976;27;20063;-81
2024/01/03 06:05:30;;;;;;;201.85;163.55;;;9.00;99.90;;;;;;5147009;27;20085;-83
2024/01/03 06:07:56;;;;;;;16.63;13.65;;;9.10;99.90;;;;;;5100232;27;20125;-83
2024/01/03 06:10:21;;;;;;;66.78;59.67;;;9.10;99.90;;;;;;5100816;27;20043;-83
2024/01/03 06:12:47;;;;;;;56.58;48.88;;;9.10;99.90;;;;;;5125489;27;20047;-82
2024/01/03 06:15:13;;;;;;;130.68;68.25;;;9.10;99.90;;;;;;5114150;27;20038;-82
2024/01/03 06:17:38;;;;;;;21.83;12.82;;;9.10;99.90;;;;;;5115004;27;20030;-82
2024/01/03 06:20:05;;;;;;;19.10;11.52;;;9.10;99.90;;;;;;5113919;27;20039;-82
2024/01/03 06:22:30;;;;;;;24.00;13.57;;;9.10;99.90;;;;;;5094219;28;20044;-82
2024/01/03 06:24:56;;;;;;;19.08;11.82;;;9.10;99.90;;;;;;5120097;27;20039;-81
2024/01/03 06:27:21;;;;;;;22.65;15.93;;;9.10;99.90;;;;;;5124014;27;20662;-82
2024/01/03 06:29:47;;;;;;;24.75;21.13;;;9.10;99.90;;;;;;5116982;27;20036;-82
2024/01/03 06:32:14;;;;;;;18.70;11.75;;;9.10;99.90;;;;;;5092121;28;20044;-82
2024/01/03 06:34:40;;;;;;;34.85;31.48;;;9.10;99.90;;;;;;5116497;27;20118;-82
2024/01/03 06:37:06;;;;;;;23.42;21.00;;;9.10;99.90;;;;;;5113279;27;20122;-83
2024/01/03 06:39:31;;;;;;;18.95;12.70;;;9.10;99.90;;;;;;5122713;27;20039;-82
2024/01/03 06:41:57;;;;;;;19.67;11.27;;;9.20;99.90;;;;;;5128492;27;20047;-81
2024/01/03 06:44:23;;;;;;;115.60;51.72;;;9.20;99.90;;;;;;5107242;27;20039;-82
2024/01/03 06:46:51;;;;;;;54.58;49.83;;;9.20;99.90;;;;;;5118707;27;20046;-81
2024/01/03 06:49:17;;;;;;;19.60;11.50;;;9.30;99.90;;;;;;5115717;27;20041;-82
2024/01/03 06:51:44;;;;;;;24.75;13.43;;;9.30;99.90;;;;;;5115425;27;20027;-82
2024/01/03 06:54:09;;;;;;;25.63;15.65;;;9.20;99.90;;;;;;5129014;27;20039;-82
2024/01/03 06:56:35;;;;;;;18.48;11.50;;;9.30;99.90;;;;;;5094771;28;20054;-81
2024/01/03 06:59:00;;;;;;;20.33;13.27;;;9.20;99.90;;;;;;5128363;27;20122;-81
2024/01/03 07:01:26;;;;;;;30.30;12.32;;;9.20;99.90;;;;;;5095692;28;20051;-82
2024/01/03 07:03:52;;;;;;;24.58;18.27;;;9.20;99.90;;;;;;5119000;27;20042;-81
2024/01/03 07:06:17;;;;;;;19.23;10.95;;;9.10;99.90;;;;;;5118717;27;20088;-82
2024/01/03 07:08:43;;;;;;;19.23;12.65;;;9.10;99.90;;;;;;5116829;27;20043;-82
2024/01/03 07:11:09;;;;;;;23.90;11.23;;;9.10;99.90;;;;;;5107076;27;20046;-81
2024/01/03 07:13:35;;;;;;;23.45;11.65;;;9.10;99.90;;;;;;5129439;27;20042;-81
2024/01/03 07:16:01;;;;;;;21.23;11.75;;;9.10;99.90;;;;;;5108945;27;20092;-81
2024/01/03 07:18:26;;;;;;;16.77;12.25;;;9.10;99.90;;;;;;5091499;28;20495;-81
2024/01/03 07:20:52;;;;;;;57.83;25.02;;;9.10;99.90;;;;;;5111686;27;20046;-82
2024/01/03 07:23:17;;;;;;;110.25;91.88;;;9.10;99.90;;;;;;5091188;28;20081;-81
2024/01/03 07:25:43;;;;;;;17.13;11.38;;;9.10;99.90;;;;;;5076929;28;20039;-82
2024/01/03 07:28:09;;;;;;;20.92;13.75;;;9.00;99.90;;;;;;5085693;28;20040;-82
2024/01/03 07:30:35;;;;;;;27.73;13.73;;;9.00;99.90;;;;;;5086154;28;20048;-82
2024/01/03 07:33:01;;;;;;;19.38;11.27;;;9.10;99.90;;;;;;5090273;28;20511;-82
2024/01/03 07:35:26;;;;;;;20.35;14.68;;;9.00;99.90;;;;;;5088985;28;20096;-82
2024/01/03 07:37:52;;;;;;;19.85;17.90;;;9.10;99.90;;;;;;5060801;28;20093;-80
2024/01/03 07:40:17;;;;;;;24.10;20.17;;;9.10;99.90;;;;;;5105754;28;20058;-82
2024/01/03 07:42:43;;;;;;;30.58;27.02;;;9.10;99.90;;;;;;5103789;28;20472;-82
2024/01/03 07:45:09;;;;;;;19.85;16.27;;;9.10;99.90;;;;;;5081875;28;20035;-82
2024/01/03 07:47:35;;;;;;;19.65;10.68;;;9.10;99.90;;;;;;5085588;28;20032;-82
2024/01/03 07:50:00;;;;;;;22.92;17.73;;;9.10;99.90;;;;;;5108654;27;20082;-82
2024/01/03 07:52:27;;;;;;;19.45;10.98;;;9.20;99.90;;;;;;5081170;27;20046;-82
2024/01/03 07:54:53;;;;;;;17.15;14.18;;;9.20;99.90;;;;;;5063463;28;20475;-83
2024/01/03 07:57:19;;;;;;;20.65;13.90;;;9.20;99.90;;;;;;5089234;28;20042;-82
2024/01/03 07:59:45;;;;;;;33.92;31.15;;;9.20;99.90;;;;;;5072134;28;20495;-82
2024/01/03 08:02:14;;;;;;;531.08;345.00;;;9.20;99.90;;;;;;5091113;28;20799;-82
2024/01/03 08:04:40;;;;;;;21.55;13.00;;;9.10;99.90;;;;;;5100160;28;20059;-82
2024/01/03 08:07:06;;;;;;;59.05;54.97;;;9.00;99.90;;;;;;5083036;28;20047;-82
2024/01/03 08:09:37;;;;;;;19.77;11.93;;;9.00;99.90;;;;;;5070821;28;20032;-82
2024/01/03 08:12:06;;;;;;;31.52;28.38;;;9.00;99.90;;;;;;5085265;28;20082;-82
2024/01/03 08:14:31;;;;;;;15.57;10.95;;;9.00;99.90;;;;;;5101585;27;20114;-81
2024/01/03 08:16:57;;;;;;;46.10;42.33;;;9.00;99.90;;;;;;5082184;28;20131;-82
2024/01/03 08:19:23;;;;;;;19.17;17.48;;;9.00;99.90;;;;;;5085915;28;20035;-83
2024/01/03 08:21:48;;;;;;;16.08;12.98;;;9.10;99.90;;;;;;5085540;28;20074;-81
2024/01/03 08:24:14;;;;;;;16.30;14.60;;;9.10;99.90;;;;;;5103643;27;20039;-83
2024/01/03 08:26:40;;;;;;;14.63;11.40;;;9.10;99.90;;;;;;5094235;27;20455;-82
2024/01/03 08:29:05;;;;;;;17.38;12.27;;;9.00;99.90;;;;;;5104925;27;20038;-81
2024/01/03 08:31:31;;;;;;;17.02;11.93;;;9.00;99.90;;;;;;5116528;27;20673;-82
2024/01/03 08:33:56;;;;;;;155.57;36.83;;;9.00;99.90;;;;;;5113835;27;20130;-82
2024/01/03 08:36:22;;;;;;;31.17;27.83;;;8.90;99.90;;;;;;5139872;27;20035;-82
2024/01/03 08:38:48;;;;;;;13.80;12.32;;;8.90;99.90;;;;;;5098130;28;20046;-83
2024/01/03 08:41:19;;;;;;;192.77;86.57;;;8.90;99.90;;;;;;5120474;27;20039;-82
2024/01/03 08:43:45;;;;;;;13.93;11.88;;;8.90;99.90;;;;;;5113472;28;20093;-83
2024/01/03 08:46:11;;;;;;;14.52;10.80;;;8.90;99.90;;;;;;5143506;27;20045;-83
2024/01/03 08:48:41;;;;;;;17.08;11.32;;;8.90;99.90;;;;;;5116032;27;20050;-82
2024/01/03 08:51:16;;;;;;;17.58;12.10;;;8.90;99.90;;;;;;5104541;27;20041;-82
2024/01/03 08:53:42;;;;;;;18.52;11.05;;;8.90;99.90;;;;;;5118731;27;20106;-84
2024/01/03 08:56:18;;;;;;;19.17;10.75;;;8.90;99.90;;;;;;5128917;27;20035;-82
2024/01/03 08:58:46;;;;;;;17.60;10.90;;;8.90;99.90;;;;;;5102636;27;20419;-82
2024/01/03 09:01:16;;;;;;;16.83;12.00;;;8.90;99.90;;;;;;5109860;27;20085;-82
2024/01/03 09:03:42;;;;;;;24.35;21.95;;;9.00;99.90;;;;;;5119914;27;20431;-83
2024/01/03 09:06:07;;;;;;;19.65;11.60;;;9.00;99.90;;;;;;5125870;27;20062;-82
2024/01/03 09:08:33;;;;;;;15.00;11.00;;;9.00;99.90;;;;;;5125526;27;20113;-82
2024/01/03 09:10:59;;;;;;;14.82;10.45;;;9.00;99.90;;;;;;5123562;27;20069;-82
2024/01/03 09:13:25;;;;;;;16.73;12.13;;;9.00;99.90;;;;;;5104261;27;20031;-82
2024/01/03 09:15:51;;;;;;;26.50;24.17;;;9.00;99.90;;;;;;5137251;27;20035;-83
2024/01/03 09:18:17;;;;;;;19.67;11.32;;;9.00;99.90;;;;;;5121353;27;20497;-82
2024/01/03 09:20:42;;;;;;;27.42;24.73;;;9.00;99.90;;;;;;5100533;27;20066;-83
2024/01/03 09:23:08;;;;;;;19.77;13.35;;;9.00;99.90;;;;;;5134215;27;20043;-83
2024/01/03 09:25:34;;;;;;;16.63;13.18;;;9.00;99.90;;;;;;5131701;27;20118;-83
2024/01/03 09:28:00;;;;;;;18.15;11.35;;;9.00;99.90;;;;;;5131002;27;20053;-83
2024/01/03 09:30:26;;;;;;;19.73;12.00;;;9.10;99.90;;;;;;5122817;27;20047;-82
2024/01/03 09:32:52;;;;;;;21.23;13.00;;;9.10;99.90;;;;;;5111395;28;20147;-82
2024/01/03 09:35:17;;;;;;;38.38;32.50;;;9.10;99.90;;;;;;5096226;28;20845;-82
2024/01/03 09:37:43;;;;;;;18.52;13.60;;;9.20;99.90;;;;;;5096369;27;20491;-83
2024/01/03 09:40:11;;;;;;;18.35;11.38;;;9.20;99.90;;;;;;5101302;28;20751;-82
2024/01/03 09:42:37;;;;;;;24.83;15.05;;;9.20;99.90;;;;;;5113993;27;20469;-82
2024/01/03 09:45:04;;;;;;;16.42;11.13;;;9.30;99.90;;;;;;5100144;27;20066;-82
2024/01/03 09:47:29;;;;;;;20.08;16.73;;;9.30;99.90;;;;;;5097058;28;20043;-83
2024/01/03 09:49:55;;;;;;;19.42;12.15;;;9.20;99.90;;;;;;5096336;27;20103;-82
2024/01/03 09:52:22;;;;;;;26.55;12.02;;;9.10;99.90;;;;;;5102265;28;20798;-83
2024/01/03 09:54:47;;;;;;;12.80;10.40;;;9.10;99.90;;;;;;5117376;27;20115;-82
2024/01/03 09:57:15;;;;;;;14.07;12.60;;;9.00;99.90;;;;;;5146226;27;20569;-83
2024/01/03 09:59:41;;;;;;;17.90;12.35;;;9.00;99.90;;;;;;5104663;27;20041;-84
2024/01/03 10:02:07;;;;;;;16.63;10.48;;;9.00;99.90;;;;;;5121909;27;20032;-83
2024/01/03 10:04:33;;;;;;;14.05;10.80;;;9.10;99.90;;;;;;5113247;27;20087;-83
2024/01/03 10:06:59;;;;;;;17.13;15.60;;;9.10;99.90;;;;;;5132403;27;20125;-83
2024/01/03 10:09:38;;;;;;;13.35;10.73;;;9.10;99.90;;;;;;5126613;27;20554;-83
2024/01/03 10:12:17;;;;;;;16.48;11.70;;;9.20;99.90;;;;;;5144047;27;20122;-82
2024/01/03 10:14:43;;;;;;;17.02;12.18;;;9.20;99.90;;;;;;5143948;27;20039;-83
2024/01/03 10:17:09;;;;;;;16.95;10.23;;;9.30;99.90;;;;;;5122517;27;20054;-83
2024/01/03 10:19:36;;;;;;;14.80;10.45;;;9.40;99.90;;;;;;5109112;27;20082;-83
2024/01/03 10:22:02;;;;;;;25.00;10.45;;;9.50;99.90;;;;;;5129394;27;20161;-84
2024/01/03 10:24:29;;;;;;;37.83;30.65;;;9.50;99.90;;;;;;5098656;27;20130;-83
2024/01/03 10:27:08;;;;;;;14.70;10.27;;;9.60;99.90;;;;;;5123691;27;20448;-82
2024/01/03 10:29:35;;;;;;;16.85;9.63;;;9.70;99.90;;;;;;5115581;27;20041;-82
2024/01/03 10:32:03;;;;;;;15.30;10.15;;;9.80;99.90;;;;;;5130128;27;20520;-82
2024/01/03 10:34:29;;;;;;;10.52;9.40;;;10.00;99.90;;;;;;5121176;27;20050;-84
2024/01/03 10:36:56;;;;;;;79.88;73.03;;;10.10;99.90;;;;;;5120535;27;20043;-82
2024/01/03 10:39:22;;;;;;;14.85;9.45;;;10.20;99.90;;;;;;5112332;27;20049;-83
2024/01/03 10:41:48;;;;;;;27.55;24.98;;;10.30;99.90;;;;;;5128589;27;20049;-83
2024/01/03 10:44:16;;;;;;;11.85;9.50;;;10.30;99.90;;;;;;5111919;27;20120;-82
2024/01/03 10:46:46;;;;;;;18.05;16.27;;;10.30;99.90;;;;;;5124954;27;20118;-82
2024/01/03 10:49:11;;;;;;;13.40;9.30;;;10.10;99.90;;;;;;5108307;27;20066;-82
2024/01/03 10:51:42;;;;;;;20.50;17.15;;;10.00;99.90;;;;;;5144757;27;20066;-84
2024/01/03 10:54:11;;;;;;;16.60;10.82;;;10.00;99.90;;;;;;5112306;27;20043;-85
2024/01/03 10:56:37;;;;;;;12.45;9.52;;;9.90;99.90;;;;;;5114467;27;20031;-83
2024/01/03 10:59:04;;;;;;;190.02;145.90;;;9.90;99.90;;;;;;5118519;27;20050;-82
2024/01/03 11:01:44;;;;;;;14.35;9.98;;;9.90;99.90;;;;;;5096443;27;20104;-82
2024/01/03 11:04:55;;;;;;;15.38;11.13;;;10.00;99.90;;;;;;5113377;27;20043;-82
2024/01/03 11:07:42;;;;;;;17.52;11.07;;;10.10;99.90;;;;;;5099872;27;20691;-83
2024/01/03 11:10:08;;;;;;;30.38;22.08;;;10.10;99.90;;;;;;5095461;27;20086;-82
2024/01/03 11:12:34;;;;;;;15.18;10.40;;;10.10;99.90;;;;;;5112175;27;20526;-82
2024/01/03 11:15:22;;;;;;;19.13;10.98;;;10.10;99.90;;;;;;5134688;27;20043;-82
2024/01/03 11:17:48;;;;;;;14.23;10.40;;;10.10;99.90;;;;;;5123791;27;20027;-82
2024/01/03 11:20:27;;;;;;;17.27;13.35;;;10.10;99.90;;;;;;5136166;27;20039;-82
2024/01/03 11:22:57;;;;;;;19.90;10.05;;;10.00;99.90;;;;;;5143127;27;20091;-82
2024/01/03 11:25:48;;;;;;;23.55;20.85;;;9.90;99.90;;;;;;5101615;27;20053;-82
2024/01/03 11:28:33;;;;;;;14.18;10.73;;;9.90;99.90;;;;;;5126418;27;20078;-82
2024/01/03 11:31:02;;;;;;;18.25;11.32;;;9.90;99.90;;;;;;5106201;27;20043;-82
2024/01/03 11:33:39;;;;;;;17.30;10.43;;;10.00;99.90;;;;;;5102571;27;20111;-82
2024/01/03 11:36:05;;;;;;;16.30;11.35;;;10.00;99.90;;;;;;5094172;27;20040;-82
2024/01/03 11:38:44;;;;;;;18.40;9.85;;;10.10;99.90;;;;;;5109778;28;20047;-83
2024/01/03 11:41:16;;;;;;;58.45;52.55;;;10.10;99.90;;;;;;5100429;27;20617;-81
2024/01/03 11:43:42;;;;;;;21.67;19.17;;;10.10;99.90;;;;;;5113396;27;20071;-82
2024/01/03 11:46:12;;;;;;;18.55;10.60;;;10.20;99.90;;;;;;5098214;27;20828;-82
2024/01/03 11:48:38;;;;;;;96.72;78.05;;;10.20;99.90;;;;;;5096026;27;20045;-82
2024/01/03 11:51:22;;;;;;;15.65;10.20;;;10.20;99.90;;;;;;5118848;27;20068;-82
2024/01/03 11:53:48;;;;;;;20.10;10.53;;;10.20;99.90;;;;;;5111196;27;20035;-82
2024/01/03 11:56:27;;;;;;;16.20;9.35;;;10.30;99.90;;;;;;5140752;27;20308;-82
2024/01/03 11:58:55;;;;;;;19.60;10.85;;;10.40;99.90;;;;;;5117595;27;20042;-82
2024/01/03 12:01:20;;;;;;;18.52;10.90;;;10.40;99.90;;;;;;5126883;27;20141;-82
2024/01/03 12:03:46;;;;;;;17.70;10.88;;;10.40;99.90;;;;;;5118709;27;20130;-82
2024/01/03 12:06:12;;;;;;;18.88;10.10;;;10.50;99.90;;;;;;5122402;27;20074;-82
2024/01/03 12:08:41;;;;;;;33.35;10.25;;;10.50;99.90;;;;;;5126585;27;20035;-82
2024/01/03 12:11:07;;;;;;;16.58;9.38;;;10.50;99.90;;;;;;5123550;27;20035;-82
2024/01/03 12:13:32;;;;;;;14.60;8.77;;;10.50;99.90;;;;;;5108538;27;20490;-82
2024/01/03 12:16:02;;;;;;;19.75;17.80;;;10.40;99.90;;;;;;5094887;27;20038;-82
2024/01/03 12:18:27;;;;;;;14.95;9.45;;;10.50;99.90;;;;;;5127780;27;20043;-82
2024/01/03 12:20:53;;;;;;;37.97;29.75;;;10.50;99.90;;;;;;5117088;27;20037;-82
2024/01/03 12:23:19;;;;;;;26.27;23.55;;;10.50;99.90;;;;;;5118785;27;20057;-82
2024/01/03 12:25:45;;;;;;;14.15;8.75;;;10.50;99.90;;;;;;5102708;27;20042;-82
2024/01/03 12:28:18;;;;;;;15.68;9.18;;;10.50;99.90;;;;;;5102657;27;20578;-82
2024/01/03 12:30:44;;;;;;;16.60;9.77;;;10.40;99.90;;;;;;5111062;27;20096;-82
2024/01/03 12:33:15;;;;;;;18.88;10.63;;;10.30;99.90;;;;;;5096100;27;20115;-83
2024/01/03 12:35:45;;;;;;;18.70;10.18;;;10.20;99.90;;;;;;5121604;27;20084;-82